Time;durP1;ratioP1;P1;durP2;ratioP2;P2;SDS_P1;SDS_P2;PMS_P1;PMS_P2;Temp;Humidity;BMP_temperature;BMP_pressure;BME280_temperature;BME280_humidity;BME280_pressure;Samples;Min_cycle;Max_cycle;Signal;HPM_P1;HPM_P2
2023/11/14 06:01:42;;;;;;;;;;;;;;;;;;5425255;23;19926;-44
2023/11/14 06:04:08;;;;;;;;;;;;;;;;;;4970362;28;19962;-45
2023/11/14 06:06:34;;;;;;;;;;;;;;;;;;4970661;28;19949;-45
2023/11/14 06:08:59;;;;;;;;;;;;;;;;;;4973090;28;20421;-45
2023/11/14 06:11:25;;;;;;;;;;;;;;;;;;4974503;28;19918;-45
2023/11/14 06:13:51;;;;;;;;;;;;;;;;;;4974636;28;20283;-45
2023/11/14 06:16:17;;;;;;;;;;;;;;;;;;4974529;28;19914;-46
2023/11/14 06:18:44;;;;;;;;;;;;;;;;;;4974234;28;19997;-47
2023/11/14 06:21:10;;;;;;;;;;;;;;;;;;4974589;28;19910;-45
2023/11/14 06:23:36;;;;;;;;;;;;;;;;;;4974009;28;19969;-45
2023/11/14 06:26:03;;;;;;;;;;;;;;;;;;4973883;28;19910;-44
2023/11/14 06:28:29;;;;;;;;;;;;;;;;;;4974104;28;19954;-46
2023/11/14 06:30:55;;;;;;;;;;;;;;;;;;4974212;28;20377;-45
2023/11/14 06:33:20;;;;;;;;;;;;;;;;;;4974065;28;20565;-45
2023/11/14 06:35:47;;;;;;;;;;;;;;;;;;4974438;28;20006;-48
2023/11/14 06:38:13;;;;;;;;;;;;;;;;;;4973806;28;20415;-45
2023/11/14 06:40:39;;;;;;;;;;;;;;;;;;4973896;28;19991;-49
2023/11/14 06:43:06;;;;;;;;;;;;;;;;;;4972528;28;19945;-45
2023/11/14 06:45:32;;;;;;;;;;;;;;;;;;4974106;28;20318;-45
2023/11/14 06:47:57;;;;;;;;;;;;;;;;;;4984800;28;20004;-45
2023/11/14 06:50:23;;;;;;;;;;;;;;;;;;4975761;28;19918;-46
2023/11/14 06:52:49;;;;;;;;;;;;;;;;;;4975117;28;19917;-47
2023/11/14 06:55:15;;;;;;;;;;;;;;;;;;4974778;28;20349;-45
2023/11/14 06:57:42;;;;;;;;;;;;;;;;;;4974890;28;20969;-45
2023/11/14 07:00:09;;;;;;;;;;;;;;;;;;4974252;28;19918;-45
2023/11/14 07:02:35;;;;;;;;;;;;;;;;;;4967723;28;19929;-44
2023/11/14 07:05:01;;;;;;;;;;;;;;;;;;4974517;28;19910;-44
2023/11/14 07:07:27;;;;;;;;;;;;;;;;;;4971890;28;20016;-46
2023/11/14 07:09:52;;;;;;;;;;;;;;;;;;4971087;28;19918;-45
2023/11/14 07:12:18;;;;;;;;;;;;;;;;;;4973290;28;19949;-45
2023/11/14 07:14:44;;;;;;;;;;;;;;;;;;4972626;28;19922;-44
2023/11/14 07:17:10;;;;;;;;;;;;;;;;;;4972626;28;19922;-45
2023/11/14 07:19:36;;;;;;;;;;;;;;;;;;4968595;28;19933;-45
2023/11/14 07:22:02;;;;;;;;;;;;;;;;;;4973053;28;20298;-44
2023/11/14 07:24:28;;;;;;;;;;;;;;;;;;4971209;28;19929;-44
2023/11/14 07:26:54;;;;;;;;;;;;;;;;;;4971689;28;19914;-45
2023/11/14 07:29:20;;;;;;;;;;;;;;;;;;4967805;28;19950;-45
2023/11/14 07:31:46;;;;;;;;;;;;;;;;;;4969436;28;19926;-44
2023/11/14 07:34:12;;;;;;;;;;;;;;;;;;4970751;28;19914;-45
2023/11/14 07:36:38;;;;;;;;;;;;;;;;;;4968632;28;19915;-45
2023/11/14 07:39:05;;;;;;;;;;;;;;;;;;4967419;28;19964;-44
2023/11/14 07:41:31;;;;;;;;;;;;;;;;;;4972198;28;19933;-49
2023/11/14 07:43:57;;;;;;;;;;;;;;;;;;4973203;28;20398;-47
2023/11/14 07:46:23;;;;;;;;;;;;;;;;;;4972367;28;20004;-48
2023/11/14 07:48:49;;;;;;;;;;;;;;;;;;4972168;28;19914;-47
2023/11/14 07:51:15;;;;;;;;;;;;;;;;;;4969350;28;19926;-48
2023/11/14 07:53:41;;;;;;;;;;;;;;;;;;4968621;28;19914;-48
2023/11/14 07:56:07;;;;;;;;;;;;;;;;;;4968909;28;20570;-49
2023/11/14 07:58:33;;;;;;;;;;;;;;;;;;4969480;28;19957;-49
2023/11/14 08:00:59;;;;;;;;;;;;;;;;;;4972717;28;19914;-48
2023/11/14 08:03:25;;;;;;;;;;;;;;;;;;4977079;28;19948;-49
2023/11/14 08:05:51;;;;;;;;;;;;;;;;;;4975652;28;19914;-51
2023/11/14 08:08:17;;;;;;;;;;;;;;;;;;4972975;28;19918;-47
2023/11/14 08:10:43;;;;;;;;;;;;;;;;;;4972239;28;19914;-47
2023/11/14 08:13:09;;;;;;;;;;;;;;;;;;4976401;28;19921;-48
2023/11/14 08:15:35;;;;;;;;;;;;;;;;;;4972463;28;20334;-50
2023/11/14 08:18:01;;;;;;;;;;;;;;;;;;4985562;28;20271;-48
2023/11/14 08:20:30;;;;;;;;;;;;;;;;;;4987135;28;19914;-51
2023/11/14 08:22:56;;;;;;;;;;;;;;;;;;4970161;28;19954;-51
2023/11/14 08:25:21;;;;;;;;;;;;;;;;;;4972384;28;20426;-47
2023/11/14 08:27:48;;;;;;;;;;;;;;;;;;4987182;28;19906;-48
2023/11/14 08:30:15;;;;;;;;;;;;;;;;;;4971988;28;19914;-50
2023/11/14 08:32:41;;;;;;;;;;;;;;;;;;4969560;28;20282;-47
2023/11/14 08:35:07;;;;;;;;;;;;;;;;;;4969266;28;19922;-50
2023/11/14 08:37:32;;;;;;;;;;;;;;;;;;4967336;28;19992;-51
2023/11/14 08:39:58;;;;;;;;;;;;;;;;;;4971981;28;19920;-47
2023/11/14 08:42:24;;;;;;;;;;;;;;;;;;4971959;28;19988;-47
2023/11/14 08:44:50;;;;;;;;;;;;;;;;;;4971243;28;19921;-48
2023/11/14 08:47:16;;;;;;;;;;;;;;;;;;4971136;28;19917;-47
2023/11/14 08:49:42;;;;;;;;;;;;;;;;;;4969990;28;19941;-47
2023/11/14 08:52:08;;;;;;;;;;;;;;;;;;4970922;28;19921;-48
2023/11/14 08:54:34;;;;;;;;;;;;;;;;;;4971119;28;19941;-49
2023/11/14 08:57:00;;;;;;;;;;;;;;;;;;4971451;28;19919;-49
2023/11/14 08:59:26;;;;;;;;;;;;;;;;;;4985884;28;19916;-48
2023/11/14 09:01:51;;;;;;;;;;;;;;;;;;4970801;28;19933;-48
2023/11/14 09:04:18;;;;;;;;;;;;;;;;;;4970957;28;19996;-48
2023/11/14 09:06:43;;;;;;;;;;;;;;;;;;4969015;28;19961;-49
2023/11/14 09:09:10;;;;;;;;;;;;;;;;;;4970432;28;19910;-52
2023/11/14 09:11:35;;;;;;;;;;;;;;;;;;4970480;28;20139;-48
2023/11/14 09:14:02;;;;;;;;;;;;;;;;;;4971469;28;20405;-48
2023/11/14 09:16:28;;;;;;;;;;;;;;;;;;4967560;28;19961;-48
2023/11/14 09:18:59;;;;;;;;;;;;;;;;;;4962174;28;19996;-48
2023/11/14 09:21:24;;;;;;;;;;;;;;;;;;4969757;28;19916;-48
2023/11/14 09:23:50;;;;;;;;;;;;;;;;;;4970535;28;20004;-48
2023/11/14 09:26:16;;;;;;;;;;;;;;;;;;4970518;28;19918;-50
2023/11/14 09:28:42;;;;;;;;;;;;;;;;;;4989878;28;19914;-49
2023/11/14 09:31:08;;;;;;;;;;;;;;;;;;4990307;28;19968;-50
2023/11/14 09:33:35;;;;;;;;;;;;;;;;;;4990125;28;20422;-50
2023/11/14 09:36:01;;;;;;;;;;;;;;;;;;4989741;28;20310;-51
2023/11/14 09:38:27;;;;;;;;;;;;;;;;;;4989449;28;19914;-51
2023/11/14 09:40:53;;;;;;;;;;;;;;;;;;4978162;28;19980;-50
2023/11/14 09:43:21;;;;;;;;;;;;;;;;;;4969848;28;20414;-47
2023/11/14 09:45:47;;;;;;;;;;;;;;;;;;4952888;28;20465;-49
2023/11/14 09:48:12;;;;;;;;;;;;;;;;;;4972808;28;19953;-50
2023/11/14 09:50:38;;;;;;;;;;;;;;;;;;4970345;28;19918;-53
2023/11/14 09:53:04;;;;;;;;;;;;;;;;;;4970380;28;19918;-48
2023/11/14 09:55:30;;;;;;;;;;;;;;;;;;4968899;28;20303;-50
2023/11/14 09:57:56;;;;;;;;;;;;;;;;;;4970130;28;20375;-49
2023/11/14 10:00:22;;;;;;;;;;;;;;;;;;4970385;28;19910;-47
2023/11/14 10:02:48;;;;;;;;;;;;;;;;;;4970748;28;20380;-51
2023/11/14 10:05:14;;;;;;;;;;;;;;;;;;4971072;28;19917;-47
2023/11/14 10:07:40;;;;;;;;;;;;;;;;;;4969426;28;19925;-47
2023/11/14 10:10:06;;;;;;;;;;;;;;;;;;4970730;28;19914;-51
2023/11/14 10:12:32;;;;;;;;;;;;;;;;;;4970634;28;19973;-47
2023/11/14 10:14:58;;;;;;;;;;;;;;;;;;4970728;28;19917;-50
2023/11/14 10:17:29;;;;;;;;;;;;;;;;;;4969192;28;19918;-48
2023/11/14 10:19:55;;;;;;;;;;;;;;;;;;4970754;28;19960;-48
2023/11/14 10:22:21;;;;;;;;;;;;;;;;;;4985410;28;19910;-49
2023/11/14 10:24:47;;;;;;;;;;;;;;;;;;4969736;28;19914;-50
2023/11/14 10:27:12;;;;;;;;;;;;;;;;;;4970651;28;19910;-49
2023/11/14 10:29:38;;;;;;;;;;;;;;;;;;4970945;28;19916;-49
2023/11/14 10:32:04;;;;;;;;;;;;;;;;;;4970379;28;19924;-47
2023/11/14 10:34:30;;;;;;;;;;;;;;;;;;4970362;28;20397;-49
2023/11/14 10:36:56;;;;;;;;;;;;;;;;;;4970330;28;19907;-48
2023/11/14 10:39:22;;;;;;;;;;;;;;;;;;4968986;28;19988;-49
2023/11/14 10:41:49;;;;;;;;;;;;;;;;;;4970452;28;19938;-51
2023/11/14 10:44:15;;;;;;;;;;;;;;;;;;4970385;28;19969;-49
2023/11/14 10:46:41;;;;;;;;;;;;;;;;;;4970898;28;20330;-49
2023/11/14 10:49:09;;;;;;;;;;;;;;;;;;4970548;28;19924;-47
2023/11/14 10:51:36;;;;;;;;;;;;;;;;;;4970346;28;19922;-50
2023/11/14 10:54:05;;;;;;;;;;;;;;;;;;4971730;28;19910;-47
2023/11/14 10:56:31;;;;;;;;;;;;;;;;;;4973851;28;19916;-50
2023/11/14 10:58:57;;;;;;;;;;;;;;;;;;4973605;28;19910;-47
2023/11/14 11:01:23;;;;;;;;;;;;;;;;;;4973468;28;19918;-52
2023/11/14 11:03:49;;;;;;;;;;;;;;;;;;4981844;28;19920;-49
2023/11/14 11:06:15;;;;;;;;;;;;;;;;;;4985513;28;19910;-49
2023/11/14 11:08:41;;;;;;;;;;;;;;;;;;4972135;28;19921;-48
2023/11/14 11:11:08;;;;;;;;;;;;;;;;;;4971497;28;19918;-49
2023/11/14 11:13:34;;;;;;;;;;;;;;;;;;4972326;28;19933;-50
2023/11/14 11:16:00;;;;;;;;;;;;;;;;;;4978521;28;19918;-51
2023/11/14 11:18:26;;;;;;;;;;;;;;;;;;4971426;28;19914;-51
2023/11/14 11:20:52;;;;;;;;;;;;;;;;;;4972682;28;19910;-48
2023/11/14 11:23:18;;;;;;;;;;;;;;;;;;4973165;28;19910;-50
2023/11/14 11:25:44;;;;;;;;;;;;;;;;;;4972825;28;19910;-48
2023/11/14 11:28:10;;;;;;;;;;;;;;;;;;4983985;28;20370;-51
2023/11/14 11:30:36;;;;;;;;;;;;;;;;;;4974374;28;20438;-49
2023/11/14 11:33:02;;;;;;;;;;;;;;;;;;4977093;28;19910;-48
2023/11/14 11:35:28;;;;;;;;;;;;;;;;;;4991998;28;19964;-50
2023/11/14 11:37:54;;;;;;;;;;;;;;;;;;4991742;28;19909;-49
2023/11/14 11:40:25;;;;;;;;;;;;;;;;;;4990038;28;19914;-50
2023/11/14 11:42:51;;;;;;;;;;;;;;;;;;4975499;28;19921;-49
2023/11/14 11:45:17;;;;;;;;;;;;;;;;;;4972529;28;19910;-48
2023/11/14 11:47:43;;;;;;;;;;;;;;;;;;4954059;28;19940;-51
2023/11/14 11:50:09;;;;;;;;;;;;;;;;;;4972013;28;19918;-51
2023/11/14 11:52:34;;;;;;;;;;;;;;;;;;4971472;28;19944;-48
2023/11/14 11:55:00;;;;;;;;;;;;;;;;;;4972307;28;19965;-50
2023/11/14 11:57:26;;;;;;;;;;;;;;;;;;4953428;28;20291;-47
2023/11/14 11:59:52;;;;;;;;;;;;;;;;;;4969434;28;19918;-50
2023/11/14 12:02:18;;;;;;;;;;;;;;;;;;4970739;28;19922;-49
2023/11/14 12:04:44;;;;;;;;;;;;;;;;;;4970524;28;19914;-48
2023/11/14 12:07:10;;;;;;;;;;;;;;;;;;4970206;28;20223;-50
2023/11/14 12:09:36;;;;;;;;;;;;;;;;;;4970456;28;20394;-50
2023/11/14 12:12:02;;;;;;;;;;;;;;;;;;4970589;28;19918;-50
2023/11/14 12:14:28;;;;;;;;;;;;;;;;;;4970549;28;19937;-50
2023/11/14 12:16:55;;;;;;;;;;;;;;;;;;4971328;28;19906;-49
2023/11/14 12:19:21;;;;;;;;;;;;;;;;;;4970825;28;19917;-51
2023/11/14 12:21:47;;;;;;;;;;;;;;;;;;4952825;28;19907;-51
2023/11/14 12:24:12;;;;;;;;;;;;;;;;;;4970040;28;20379;-48
2023/11/14 12:26:38;;;;;;;;;;;;;;;;;;4970294;28;19914;-51
2023/11/14 12:29:04;;;;;;;;;;;;;;;;;;4969871;28;19914;-47
2023/11/14 12:31:30;;;;;;;;;;;;;;;;;;4970273;28;19933;-50
2023/11/14 12:33:58;;;;;;;;;;;;;;;;;;4970163;28;19938;-52
2023/11/14 12:36:24;;;;;;;;;;;;;;;;;;4970980;28;19972;-48
2023/11/14 12:38:50;;;;;;;;;;;;;;;;;;4969938;28;20008;-50
2023/11/14 12:41:16;;;;;;;;;;;;;;;;;;4970113;28;19914;-51
2023/11/14 12:43:42;;;;;;;;;;;;;;;;;;4970116;28;19910;-49
2023/11/14 12:46:08;;;;;;;;;;;;;;;;;;4969994;28;20367;-48
2023/11/14 12:48:34;;;;;;;;;;;;;;;;;;4969561;28;20004;-50
2023/11/14 12:51:00;;;;;;;;;;;;;;;;;;4970792;28;19914;-50
2023/11/14 12:53:27;;;;;;;;;;;;;;;;;;4971184;28;20530;-49
2023/11/14 12:55:52;;;;;;;;;;;;;;;;;;4971637;28;19910;-50
2023/11/14 12:58:18;;;;;;;;;;;;;;;;;;4970670;28;20314;-47
2023/11/14 13:00:44;;;;;;;;;;;;;;;;;;4970880;28;19922;-49
2023/11/14 13:03:10;;;;;;;;;;;;;;;;;;4970829;28;20449;-51
2023/11/14 13:05:36;;;;;;;;;;;;;;;;;;4970741;28;19920;-49
2023/11/14 13:08:02;;;;;;;;;;;;;;;;;;4970525;28;19918;-48
2023/11/14 13:10:28;;;;;;;;;;;;;;;;;;4970157;28;19917;-49
2023/11/14 13:12:54;;;;;;;;;;;;;;;;;;4971130;28;19980;-48
2023/11/14 13:15:20;;;;;;;;;;;;;;;;;;4970595;28;19953;-48
2023/11/14 13:17:45;;;;;;;;;;;;;;;;;;4969540;28;20335;-50
2023/11/14 13:20:11;;;;;;;;;;;;;;;;;;4970141;28;19910;-52
2023/11/14 13:22:37;;;;;;;;;;;;;;;;;;4970272;28;20256;-50
2023/11/14 13:25:03;;;;;;;;;;;;;;;;;;4968624;28;19957;-52
2023/11/14 13:27:29;;;;;;;;;;;;;;;;;;4970006;28;20441;-50
2023/11/14 13:29:55;;;;;;;;;;;;;;;;;;4969394;28;19918;-49
2023/11/14 13:32:22;;;;;;;;;;;;;;;;;;4968802;28;19925;-48
2023/11/14 13:34:51;;;;;;;;;;;;;;;;;;4968780;28;19918;-51
2023/11/14 13:37:16;;;;;;;;;;;;;;;;;;4968657;28;19914;-51
2023/11/14 13:39:43;;;;;;;;;;;;;;;;;;4970225;28;19965;-51
2023/11/14 13:42:10;;;;;;;;;;;;;;;;;;4967467;28;19914;-49
2023/11/14 13:44:35;;;;;;;;;;;;;;;;;;4967224;28;20035;-50
2023/11/14 13:47:01;;;;;;;;;;;;;;;;;;4968718;28;20408;-47
2023/11/14 13:49:27;;;;;;;;;;;;;;;;;;4969498;28;20015;-51
2023/11/14 13:51:53;;;;;;;;;;;;;;;;;;4968422;28;19957;-51
2023/11/14 13:54:24;;;;;;;;;;;;;;;;;;4967847;28;19914;-48
2023/11/14 13:56:50;;;;;;;;;;;;;;;;;;4979793;28;19921;-49
2023/11/14 13:59:17;;;;;;;;;;;;;;;;;;4967714;28;19914;-46
2023/11/14 14:01:43;;;;;;;;;;;;;;;;;;4967582;28;20005;-48
2023/11/14 14:04:10;;;;;;;;;;;;;;;;;;4968607;28;20005;-50
2023/11/14 14:06:36;;;;;;;;;;;;;;;;;;4968432;28;19921;-49
2023/11/14 14:09:03;;;;;;;;;;;;;;;;;;4968693;28;19997;-49
2023/11/14 14:11:32;;;;;;;;;;;;;;;;;;4967822;28;19924;-50
2023/11/14 14:13:58;;;;;;;;;;;;;;;;;;4950329;29;19910;-47
2023/11/14 14:16:25;;;;;;;;;;;;;;;;;;4949286;29;20188;-50
2023/11/14 14:18:51;;;;;;;;;;;;;;;;;;4949320;29;19914;-51
2023/11/14 14:21:18;;;;;;;;;;;;;;;;;;4949321;29;19922;-46
2023/11/14 14:23:44;;;;;;;;;;;;;;;;;;4966692;28;20464;-52
2023/11/14 14:26:10;;;;;;;;;;;;;;;;;;4968458;28;19957;-48
2023/11/14 14:28:36;;;;;;;;;;;;;;;;;;4969036;28;19921;-47
2023/11/14 14:31:02;;;;;;;;;;;;;;;;;;4972281;28;19914;-50
2023/11/14 14:33:28;;;;;;;;;;;;;;;;;;4984760;28;20365;-51
2023/11/14 14:35:54;;;;;;;;;;;;;;;;;;4971073;28;20013;-50
2023/11/14 14:38:20;;;;;;;;;;;;;;;;;;4971529;28;20383;-47
2023/11/14 14:40:46;;;;;;;;;;;;;;;;;;4970373;28;19921;-50
2023/11/14 14:43:13;;;;;;;;;;;;;;;;;;4972183;28;19964;-50
2023/11/14 14:45:39;;;;;;;;;;;;;;;;;;4971801;28;19925;-51
2023/11/14 14:48:05;;;;;;;;;;;;;;;;;;4972206;28;19914;-47
2023/11/14 14:50:31;;;;;;;;;;;;;;;;;;4972446;28;20379;-48
2023/11/14 14:52:56;;;;;;;;;;;;;;;;;;4972094;28;19944;-50
2023/11/14 14:55:22;;;;;;;;;;;;;;;;;;4971272;28;20016;-49
2023/11/14 14:57:53;;;;;;;;;;;;;;;;;;4972104;28;19911;-50
2023/11/14 15:00:20;;;;;;;;;;;;;;;;;;4970946;28;19914;-46
2023/11/14 15:02:46;;;;;;;;;;;;;;;;;;4970908;28;19918;-47
2023/11/14 15:05:12;;;;;;;;;;;;;;;;;;4971713;28;19914;-48
2023/11/14 15:07:38;;;;;;;;;;;;;;;;;;4971603;28;19918;-50
2023/11/14 15:10:05;;;;;;;;;;;;;;;;;;4972331;28;20311;-50
2023/11/14 15:12:31;;;;;;;;;;;;;;;;;;4973191;28;19915;-49
2023/11/14 15:15:00;;;;;;;;;;;;;;;;;;4971232;28;19910;-51
2023/11/14 15:17:25;;;;;;;;;;;;;;;;;;4971680;28;19917;-48
2023/11/14 15:19:53;;;;;;;;;;;;;;;;;;4971453;28;20128;-50
2023/11/14 15:22:19;;;;;;;;;;;;;;;;;;4971692;28;20000;-49
2023/11/14 15:24:45;;;;;;;;;;;;;;;;;;4971578;28;19960;-51
2023/11/14 15:27:11;;;;;;;;;;;;;;;;;;4971662;28;20376;-49
2023/11/14 15:29:38;;;;;;;;;;;;;;;;;;4971329;28;19917;-50
2023/11/14 15:32:04;;;;;;;;;;;;;;;;;;4971203;28;19914;-49
2023/11/14 15:34:30;;;;;;;;;;;;;;;;;;4971986;28;20369;-50
2023/11/14 15:37:01;;;;;;;;;;;;;;;;;;4971125;28;19910;-50
2023/11/14 15:39:26;;;;;;;;;;;;;;;;;;4971357;28;20009;-48
2023/11/14 15:41:56;;;;;;;;;;;;;;;;;;4969879;28;19958;-44
2023/11/14 15:44:21;;;;;;;;;;;;;;;;;;4971031;28;19916;-44
2023/11/14 15:46:47;;;;;;;;;;;;;;;;;;4970696;28;20310;-43
2023/11/14 15:49:14;;;;;;;;;;;;;;;;;;4970875;28;19942;-43
2023/11/14 15:51:40;;;;;;;;;;;;;;;;;;4970919;28;19914;-43
2023/11/14 15:54:05;;;;;;;;;;;;;;;;;;4971086;28;19924;-44
2023/11/14 15:56:32;;;;;;;;;;;;;;;;;;4971210;28;20414;-48
2023/11/14 15:58:58;;;;;;;;;;;;;;;;;;4970967;28;19910;-43
2023/11/14 16:01:24;;;;;;;;;;;;;;;;;;4970572;28;19925;-45
2023/11/14 16:03:50;;;;;;;;;;;;;;;;;;4970812;28;19910;-45
2023/11/14 16:06:16;;;;;;;;;;;;;;;;;;4970835;28;19910;-44
2023/11/14 16:08:42;;;;;;;;;;;;;;;;;;4971074;28;19980;-44
2023/11/14 16:11:08;;;;;;;;;;;;;;;;;;4970415;28;19914;-45
2023/11/14 16:13:34;;;;;;;;;;;;;;;;;;4971311;28;19910;-45
2023/11/14 16:16:06;;;;;;;;;;;;;;;;;;4970318;28;19910;-44
2023/11/14 16:18:31;;;;;;;;;;;;;;;;;;4971169;28;19916;-44
2023/11/14 16:20:57;;;;;;;;;;;;;;;;;;4970256;28;20445;-44
2023/11/14 16:23:23;;;;;;;;;;;;;;;;;;4970403;28;20035;-44
2023/11/14 16:25:49;;;;;;;;;;;;;;;;;;4970047;28;19985;-44
2023/11/14 16:28:18;;;;;;;;;;;;;;;;;;4970488;28;19914;-45
2023/11/14 16:30:44;;;;;;;;;;;;;;;;;;4970061;28;19925;-45
2023/11/14 16:33:10;;;;;;;;;;;;;;;;;;4970234;28;19910;-45
2023/11/14 16:35:36;;;;;;;;;;;;;;;;;;4970825;28;19972;-44
2023/11/14 16:38:02;;;;;;;;;;;;;;;;;;4970666;28;19910;-44
2023/11/14 16:40:28;;;;;;;;;;;;;;;;;;4969742;28;19914;-45
2023/11/14 16:42:54;;;;;;;;;;;;;;;;;;4970167;28;20387;-44
2023/11/14 16:45:20;;;;;;;;;;;;;;;;;;4970226;28;19926;-44
2023/11/14 16:47:46;;;;;;;;;;;;;;;;;;4984793;28;19917;-44
2023/11/14 16:50:12;;;;;;;;;;;;;;;;;;4969888;28;20379;-43
2023/11/14 16:52:38;;;;;;;;;;;;;;;;;;4969811;28;19941;-43
2023/11/14 16:55:05;;;;;;;;;;;;;;;;;;4970272;28;19918;-43
2023/11/14 16:57:32;;;;;;;;;;;;;;;;;;4969520;28;19910;-44
2023/11/14 16:59:58;;;;;;;;;;;;;;;;;;4969822;28;19914;-43
2023/11/14 17:02:24;;;;;;;;;;;;;;;;;;4969450;28;19967;-44
2023/11/14 17:04:50;;;;;;;;;;;;;;;;;;4984679;28;19950;-43
2023/11/14 17:07:16;;;;;;;;;;;;;;;;;;4969573;28;20390;-43
2023/11/14 17:09:42;;;;;;;;;;;;;;;;;;4969418;28;19914;-45
2023/11/14 17:12:08;;;;;;;;;;;;;;;;;;4969870;28;19984;-45
2023/11/14 17:14:35;;;;;;;;;;;;;;;;;;4985086;28;19941;-43
2023/11/14 17:17:01;;;;;;;;;;;;;;;;;;4989127;28;19910;-45
2023/11/14 17:19:26;;;;;;;;;;;;;;;;;;4972249;28;19958;-44
2023/11/14 17:21:53;;;;;;;;;;;;;;;;;;4969974;28;20210;-44
2023/11/14 17:24:19;;;;;;;;;;;;;;;;;;4969302;28;19918;-47
2023/11/14 17:26:47;;;;;;;;;;;;;;;;;;4969441;28;20403;-47
2023/11/14 17:29:13;;;;;;;;;;;;;;;;;;4969142;28;20518;-48
2023/11/14 17:31:42;;;;;;;;;;;;;;;;;;4969206;28;19918;-49
2023/11/14 17:34:08;;;;;;;;;;;;;;;;;;4969301;28;19911;-47
2023/11/14 17:36:34;;;;;;;;;;;;;;;;;;4969006;28;19921;-49
2023/11/14 17:39:00;;;;;;;;;;;;;;;;;;4968697;28;19996;-48
2023/11/14 17:41:27;;;;;;;;;;;;;;;;;;4969977;28;20389;-46
2023/11/14 17:43:55;;;;;;;;;;;;;;;;;;4969746;28;19918;-49
2023/11/14 17:46:21;;;;;;;;;;;;;;;;;;4969042;28;19910;-47
2023/11/14 17:48:47;;;;;;;;;;;;;;;;;;4969154;28;19921;-48
2023/11/14 17:51:13;;;;;;;;;;;;;;;;;;4968700;28;20346;-50
2023/11/14 17:53:39;;;;;;;;;;;;;;;;;;4968741;28;19914;-47
2023/11/14 17:56:06;;;;;;;;;;;;;;;;;;4967851;28;19922;-47
2023/11/14 17:58:32;;;;;;;;;;;;;;;;;;4968847;28;20299;-48
2023/11/14 18:00:58;;;;;;;;;;;;;;;;;;4968514;28;19926;-48
2023/11/14 18:03:24;;;;;;;;;;;;;;;;;;4968669;28;19910;-48
2023/11/14 18:05:50;;;;;;;;;;;;;;;;;;4968576;28;19911;-48
2023/11/14 18:08:16;;;;;;;;;;;;;;;;;;4968350;28;19933;-48
2023/11/14 18:10:42;;;;;;;;;;;;;;;;;;4968719;28;19910;-50
2023/11/14 18:13:08;;;;;;;;;;;;;;;;;;4968862;28;19910;-47
2023/11/14 18:15:34;;;;;;;;;;;;;;;;;;4968758;28;20421;-48
2023/11/14 18:18:00;;;;;;;;;;;;;;;;;;4968817;28;19910;-47
2023/11/14 18:20:26;;;;;;;;;;;;;;;;;;4969182;28;19911;-46
2023/11/14 18:22:54;;;;;;;;;;;;;;;;;;4968372;28;20162;-47
2023/11/14 18:25:20;;;;;;;;;;;;;;;;;;4968571;28;20306;-46
2023/11/14 18:27:46;;;;;;;;;;;;;;;;;;4968628;28;20387;-47
2023/11/14 18:30:12;;;;;;;;;;;;;;;;;;4968772;28;19917;-48
2023/11/14 18:32:38;;;;;;;;;;;;;;;;;;4967042;28;20300;-46
2023/11/14 18:35:04;;;;;;;;;;;;;;;;;;4968558;28;20219;-47
2023/11/14 18:37:30;;;;;;;;;;;;;;;;;;4968364;28;19914;-50
2023/11/14 18:39:56;;;;;;;;;;;;;;;;;;4969020;28;20426;-46
2023/11/14 18:42:22;;;;;;;;;;;;;;;;;;4968268;28;19910;-48
2023/11/14 18:44:48;;;;;;;;;;;;;;;;;;4968453;28;20420;-47
2023/11/14 18:47:14;;;;;;;;;;;;;;;;;;4968342;28;20001;-47
2023/11/14 18:49:40;;;;;;;;;;;;;;;;;;4968476;28;19910;-43
2023/11/14 18:52:06;;;;;;;;;;;;;;;;;;4968125;28;20314;-44
2023/11/14 18:54:32;;;;;;;;;;;;;;;;;;4968439;28;19964;-43
2023/11/14 18:56:58;;;;;;;;;;;;;;;;;;4969237;28;19910;-43
2023/11/14 18:59:24;;;;;;;;;;;;;;;;;;4968371;28;19920;-43
2023/11/14 19:01:50;;;;;;;;;;;;;;;;;;4968344;28;19914;-44
2023/11/14 19:04:19;;;;;;;;;;;;;;;;;;4967791;28;19910;-44
2023/11/14 19:06:46;;;;;;;;;;;;;;;;;;4968258;28;19910;-44
2023/11/14 19:09:14;;;;;;;;;;;;;;;;;;4967852;28;19993;-43
2023/11/14 19:11:40;;;;;;;;;;;;;;;;;;4979320;28;19953;-43
2023/11/14 19:14:07;;;;;;;;;;;;;;;;;;4970931;28;20580;-43
2023/11/14 19:16:33;;;;;;;;;;;;;;;;;;4969563;28;19945;-44
2023/11/14 19:18:59;;;;;;;;;;;;;;;;;;4971169;28;19910;-44
2023/11/14 19:21:25;;;;;;;;;;;;;;;;;;4970582;28;20534;-43
2023/11/14 19:23:51;;;;;;;;;;;;;;;;;;4969343;28;20423;-46
2023/11/14 19:26:17;;;;;;;;;;;;;;;;;;4970720;28;19914;-45
2023/11/14 19:28:43;;;;;;;;;;;;;;;;;;4977422;28;20395;-45
2023/11/14 19:31:09;;;;;;;;;;;;;;;;;;4966958;28;19918;-43
2023/11/14 19:33:35;;;;;;;;;;;;;;;;;;4970138;28;19922;-43
2023/11/14 19:36:02;;;;;;;;;;;;;;;;;;4970472;28;19918;-44
2023/11/14 19:38:30;;;;;;;;;;;;;;;;;;4983816;28;20555;-47
2023/11/14 19:40:56;;;;;;;;;;;;;;;;;;4968065;28;19914;-45
2023/11/14 19:43:22;;;;;;;;;;;;;;;;;;4969397;28;19964;-46
2023/11/14 19:45:49;;;;;;;;;;;;;;;;;;4952662;28;19917;-44
2023/11/14 19:48:16;;;;;;;;;;;;;;;;;;4970820;28;19918;-45
2023/11/14 19:50:46;;;;;;;;;;;;;;;;;;4970257;28;19953;-44
2023/11/14 19:53:12;;;;;;;;;;;;;;;;;;4971605;28;19915;-44
2023/11/14 19:55:38;;;;;;;;;;;;;;;;;;4971487;28;19910;-45
2023/11/14 19:58:04;;;;;;;;;;;;;;;;;;4971305;28;19918;-44
2023/11/14 20:00:33;;;;;;;;;;;;;;;;;;4969526;28;20379;-47
2023/11/14 20:03:02;;;;;;;;;;;;;;;;;;4969748;28;19915;-49
2023/11/14 20:05:28;;;;;;;;;;;;;;;;;;4969792;28;20342;-47
2023/11/14 20:07:54;;;;;;;;;;;;;;;;;;4970885;28;19910;-46
2023/11/14 20:10:20;;;;;;;;;;;;;;;;;;4968929;28;19953;-47
2023/11/14 20:12:46;;;;;;;;;;;;;;;;;;4970592;28;19914;-47
2023/11/14 20:15:12;;;;;;;;;;;;;;;;;;4970950;28;19937;-48
2023/11/14 20:17:38;;;;;;;;;;;;;;;;;;4979578;28;19913;-49
2023/11/14 20:20:04;;;;;;;;;;;;;;;;;;4975729;28;19968;-48
2023/11/14 20:22:31;;;;;;;;;;;;;;;;;;4970908;28;19910;-47
2023/11/14 20:24:58;;;;;;;;;;;;;;;;;;4970846;28;19964;-49
2023/11/14 20:27:24;;;;;;;;;;;;;;;;;;4978183;28;19976;-49
2023/11/14 20:29:50;;;;;;;;;;;;;;;;;;4968261;28;19918;-46
2023/11/14 20:32:16;;;;;;;;;;;;;;;;;;4956289;28;19922;-47
2023/11/14 20:34:42;;;;;;;;;;;;;;;;;;4971114;28;19925;-50
2023/11/14 20:37:08;;;;;;;;;;;;;;;;;;4972743;28;19937;-51
2023/11/14 20:39:34;;;;;;;;;;;;;;;;;;4967300;28;19918;-50
2023/11/14 20:42:00;;;;;;;;;;;;;;;;;;4984066;28;19969;-47
2023/11/14 20:44:28;;;;;;;;;;;;;;;;;;4967572;28;19921;-50
2023/11/14 20:46:54;;;;;;;;;;;;;;;;;;4982852;28;19960;-49
2023/11/14 20:49:19;;;;;;;;;;;;;;;;;;4966834;28;19914;-46
2023/11/14 20:51:45;;;;;;;;;;;;;;;;;;4969870;28;19914;-50
2023/11/14 20:54:12;;;;;;;;;;;;;;;;;;4967603;28;19950;-47
2023/11/14 20:56:38;;;;;;;;;;;;;;;;;;4970161;28;19956;-50
2023/11/14 20:59:04;;;;;;;;;;;;;;;;;;4950423;28;19914;-49
2023/11/14 21:01:30;;;;;;;;;;;;;;;;;;4967062;28;19918;-50
2023/11/14 21:03:56;;;;;;;;;;;;;;;;;;4968481;28;19961;-49
2023/11/14 21:06:22;;;;;;;;;;;;;;;;;;4968920;28;19969;-50
2023/11/14 21:08:47;;;;;;;;;;;;;;;;;;4968370;28;19914;-49
2023/11/14 21:11:13;;;;;;;;;;;;;;;;;;4963812;28;19918;-50
2023/11/14 21:13:40;;;;;;;;;;;;;;;;;;4969689;28;19918;-51
2023/11/14 21:16:06;;;;;;;;;;;;;;;;;;4966720;28;20307;-52
2023/11/14 21:18:31;;;;;;;;;;;;;;;;;;4964839;28;19933;-48
2023/11/14 21:20:57;;;;;;;;;;;;;;;;;;4967488;28;19921;-48
2023/11/14 21:23:23;;;;;;;;;;;;;;;;;;4950998;28;19940;-52
2023/11/14 21:25:49;;;;;;;;;;;;;;;;;;4967245;28;19918;-51
2023/11/14 21:28:15;;;;;;;;;;;;;;;;;;4969559;28;19910;-47
2023/11/14 21:30:41;;;;;;;;;;;;;;;;;;4966827;28;20004;-50
2023/11/14 21:33:08;;;;;;;;;;;;;;;;;;4982970;28;19943;-47
2023/11/14 21:35:33;;;;;;;;;;;;;;;;;;4959969;28;19914;-50
2023/11/14 21:37:59;;;;;;;;;;;;;;;;;;4966333;28;19978;-49
2023/11/14 21:40:25;;;;;;;;;;;;;;;;;;4966988;28;20017;-51
2023/11/14 21:42:51;;;;;;;;;;;;;;;;;;4965359;28;20843;-49
2023/11/14 21:45:17;;;;;;;;;;;;;;;;;;4965323;28;19921;-50
2023/11/14 21:47:43;;;;;;;;;;;;;;;;;;4966661;28;19914;-52
2023/11/14 21:50:09;;;;;;;;;;;;;;;;;;4968670;28;19953;-51
2023/11/14 21:52:35;;;;;;;;;;;;;;;;;;4964928;28;19929;-49
2023/11/14 21:55:01;;;;;;;;;;;;;;;;;;4964922;28;20598;-52
2023/11/14 21:57:27;;;;;;;;;;;;;;;;;;4966311;28;19933;-52
2023/11/14 21:59:52;;;;;;;;;;;;;;;;;;4965089;28;19914;-50
2023/11/14 22:02:18;;;;;;;;;;;;;;;;;;4964862;28;19918;-50
2023/11/14 22:04:45;;;;;;;;;;;;;;;;;;4966869;28;19918;-52
2023/11/14 22:07:11;;;;;;;;;;;;;;;;;;4967980;28;19920;-51
2023/11/14 22:09:38;;;;;;;;;;;;;;;;;;4965066;28;20001;-47
2023/11/14 22:12:04;;;;;;;;;;;;;;;;;;4964202;28;19925;-49
2023/11/14 22:14:30;;;;;;;;;;;;;;;;;;4966337;28;19920;-50
2023/11/14 22:16:57;;;;;;;;;;;;;;;;;;4967043;28;20426;-51
2023/11/14 22:19:23;;;;;;;;;;;;;;;;;;4966306;28;19969;-48
2023/11/14 22:21:49;;;;;;;;;;;;;;;;;;4967591;28;19984;-52
2023/11/14 22:24:15;;;;;;;;;;;;;;;;;;4967982;28;19925;-50
2023/11/14 22:26:41;;;;;;;;;;;;;;;;;;4963759;28;21164;-52
2023/11/14 22:29:07;;;;;;;;;;;;;;;;;;4966745;28;20034;-49
2023/11/14 22:31:33;;;;;;;;;;;;;;;;;;4965037;28;19918;-52
2023/11/14 22:33:59;;;;;;;;;;;;;;;;;;4966490;28;20395;-47
2023/11/14 22:36:25;;;;;;;;;;;;;;;;;;4966481;28;19918;-50
2023/11/14 22:38:52;;;;;;;;;;;;;;;;;;4967523;28;20463;-50